createdAt,value
2019-01-03T00:02:21.445Z,17.07
2019-01-03T00:05:07.004Z,32.90
2019-01-03T00:07:43.252Z,14.80
2019-01-03T00:10:16.210Z,10.17
2019-01-03T00:13:04.798Z,15.20
2019-01-03T00:15:51.136Z,15.33
2019-01-03T00:18:24.144Z,10.53
2019-01-03T00:20:54.396Z,13.67
2019-01-03T00:23:27.804Z,26.83
2019-01-03T00:25:58.174Z,21.87
2019-01-03T00:28:37.454Z,22.70
2019-01-03T00:31:07.777Z,19.97
2019-01-03T00:33:43.850Z,18.87
2019-01-03T00:36:30.577Z,16.90
2019-01-03T00:39:09.753Z,14.70
2019-01-03T00:41:43.209Z,16.00
2019-01-03T00:44:16.319Z,16.27
2019-01-03T00:46:46.751Z,13.57
2019-01-03T00:49:26.002Z,15.30
2019-01-03T00:52:11.256Z,16.60
2019-01-03T00:54:57.860Z,13.30
2019-01-03T00:57:40.700Z,11.37
2019-01-03T01:00:13.830Z,10.63
2019-01-03T01:03:00.925Z,9.50
2019-01-03T01:05:47.453Z,10.40
2019-01-03T01:08:20.475Z,11.73
2019-01-03T01:10:53.460Z,10.77
2019-01-03T01:13:42.660Z,12.33
2019-01-03T01:16:29.260Z,9.20
2019-01-03T01:19:11.633Z,11.37
2019-01-03T01:21:54.072Z,12.77
2019-01-03T01:24:40.564Z,9.33
2019-01-03T01:27:13.892Z,11.10
2019-01-03T01:29:53.458Z,10.73
2019-01-03T01:32:29.618Z,10.30
2019-01-03T01:35:12.416Z,11.83
2019-01-03T01:37:57.631Z,12.93
2019-01-03T01:40:36.723Z,11.57
2019-01-03T01:43:13.079Z,9.53
2019-01-03T01:45:58.928Z,10.30
2019-01-03T01:48:34.814Z,9.03
2019-01-03T01:51:21.523Z,9.17
2019-01-03T01:54:08.190Z,11.20
2019-01-03T01:56:41.752Z,10.17
2019-01-03T01:59:12.005Z,12.20
2019-01-03T02:01:42.372Z,13.17
2019-01-03T02:04:18.677Z,12.03
2019-01-03T02:06:49.089Z,10.23
2019-01-03T02:09:22.296Z,12.37
2019-01-03T02:11:55.588Z,13.17
2019-01-03T02:14:25.828Z,17.00
2019-01-03T02:17:12.450Z,12.10
2019-01-03T02:19:58.987Z,13.03
2019-01-03T02:22:35.267Z,16.30
2019-01-03T02:25:11.317Z,13.30
2019-01-03T02:27:44.535Z,11.93
2019-01-03T02:30:31.226Z,15.77
2019-01-03T02:33:04.614Z,12.03
2019-01-03T02:35:37.901Z,10.83
2019-01-03T02:38:17.058Z,11.17
2019-01-03T02:41:03.372Z,9.53
2019-01-03T02:43:33.754Z,14.07
2019-01-03T02:46:15.927Z,12.67
2019-01-03T02:48:46.206Z,15.23
2019-01-03T02:51:32.796Z,18.93
2019-01-03T02:54:09.078Z,30.77
2019-01-03T02:56:51.329Z,41.77
2019-01-03T02:59:25.013Z,33.17
2019-01-03T03:01:55.262Z,18.50
2019-01-03T03:04:40.771Z,19.40
2019-01-03T03:07:20.079Z,24.70
2019-01-03T03:09:56.392Z,21.40
2019-01-03T03:12:38.778Z,22.87
2019-01-03T03:15:18.239Z,22.90
2019-01-03T03:18:03.773Z,22.10
2019-01-03T03:20:34.054Z,15.80
2019-01-03T03:23:20.890Z,17.17
2019-01-03T03:25:53.992Z,17.20
2019-01-03T03:28:40.601Z,26.97
2019-01-03T03:31:14.332Z,14.13
2019-01-03T03:33:47.423Z,14.50
2019-01-03T03:36:17.688Z,20.33
2019-01-03T03:39:04.221Z,25.93
2019-01-03T03:41:34.471Z,17.90
2019-01-03T03:44:10.873Z,19.93
2019-01-03T03:46:56.179Z,20.90
2019-01-03T03:49:32.681Z,30.53
2019-01-03T03:52:21.083Z,24.47
2019-01-03T03:54:54.365Z,25.20
2019-01-03T03:57:40.954Z,25.63
2019-01-03T04:00:29.496Z,38.43
2019-01-03T04:03:08.557Z,35.37
2019-01-03T04:05:39.058Z,42.43
2019-01-03T04:08:25.445Z,40.20
2019-01-03T04:11:04.963Z,45.13
2019-01-03T04:13:35.213Z,34.57
2019-01-03T04:16:05.467Z,37.73
2019-01-03T04:18:41.933Z,29.80
2019-01-03T04:21:18.216Z,29.43
2019-01-03T04:24:03.725Z,22.77
2019-01-03T04:26:36.669Z,22.23
2019-01-03T04:29:19.244Z,18.60
2019-01-03T04:31:52.410Z,20.17
2019-01-03T04:34:25.744Z,18.73
2019-01-03T04:36:55.992Z,21.67
2019-01-03T04:39:26.243Z,21.13
2019-01-03T04:42:03.897Z,23.67
2019-01-03T04:44:40.091Z,23.53
2019-01-03T04:47:19.596Z,22.73
2019-01-03T04:49:55.864Z,24.80
2019-01-03T04:52:43.858Z,24.13
2019-01-03T04:55:16.892Z,26.87
2019-01-03T04:57:53.368Z,28.27
2019-01-03T05:00:41.631Z,26.83
2019-01-03T05:03:20.950Z,27.10
2019-01-03T05:06:06.134Z,22.07
2019-01-03T05:08:36.979Z,24.33
2019-01-03T05:11:23.599Z,22.57
2019-01-03T05:13:56.625Z,25.07
2019-01-03T05:16:38.810Z,26.20
2019-01-03T05:19:18.295Z,51.20
2019-01-03T05:22:04.819Z,32.80
2019-01-03T05:24:47.714Z,40.07
2019-01-03T05:27:26.982Z,32.57
2019-01-03T05:29:58.690Z,31.80
2019-01-03T05:32:48.224Z,22.67
2019-01-03T05:35:35.499Z,29.27
2019-01-03T05:38:14.586Z,22.03
2019-01-03T05:40:44.905Z,23.60
2019-01-03T05:43:17.923Z,21.73
2019-01-03T05:46:04.829Z,18.37
2019-01-03T05:48:53.375Z,41.90
2019-01-03T05:51:40.237Z,18.20
2019-01-03T05:54:25.551Z,17.70
2019-01-03T05:56:58.936Z,23.43
2019-01-03T05:59:32.197Z,23.67
2019-01-03T06:02:08.348Z,20.47
2019-01-03T06:04:47.342Z,24.47
2019-01-03T06:07:17.764Z,55.07
2019-01-03T06:09:56.828Z,68.77
2019-01-03T06:12:29.929Z,60.07
2019-01-03T06:15:00.221Z,60.07
2019-01-03T06:17:39.793Z,67.03
2019-01-03T06:20:10.248Z,90.73
2019-01-03T06:22:56.835Z,102.97
2019-01-03T06:25:45.097Z,125.07
2019-01-03T06:28:15.595Z,109.80
2019-01-03T06:30:51.987Z,133.27
2019-01-03T06:33:31.564Z,126.50
2019-01-03T06:36:07.958Z,156.60
2019-01-03T06:38:44.215Z,388.40
2019-01-03T06:41:14.482Z,279.87
2019-01-03T06:43:51.040Z,218.67
2019-01-03T06:46:37.586Z,287.83
2019-01-03T06:49:24.146Z,199.33
2019-01-03T06:51:54.401Z,184.43
2019-01-03T06:54:27.401Z,176.20
2019-01-03T06:57:16.202Z,159.33
2019-01-03T06:59:46.453Z,182.87
2019-01-03T07:02:19.780Z,277.93
2019-01-03T07:05:05.219Z,237.47
2019-01-03T07:07:51.532Z,213.90
2019-01-03T07:10:23.272Z,207.87
2019-01-03T07:13:09.690Z,190.57
2019-01-03T07:15:56.661Z,103.43
2019-01-03T07:18:43.020Z,104.40
2019-01-03T07:21:27.311Z,102.00
2019-01-03T07:24:12.307Z,93.00
2019-01-03T07:26:42.793Z,73.60
2019-01-03T07:29:28.074Z,41.93
2019-01-03T07:32:13.562Z,35.10
2019-01-03T07:34:52.617Z,29.17
2019-01-03T07:37:26.098Z,25.00
2019-01-03T07:39:56.349Z,29.67
2019-01-03T07:42:43.140Z,26.63
2019-01-03T07:45:22.651Z,22.50
2019-01-03T07:47:53.043Z,19.97
2019-01-03T07:50:26.028Z,22.60
2019-01-03T07:53:05.247Z,41.40
2019-01-03T07:55:35.498Z,37.30
2019-01-03T07:58:18.051Z,28.20
2019-01-03T08:01:00.517Z,23.43
2019-01-03T08:03:30.974Z,25.53
2019-01-03T08:06:06.966Z,32.20
2019-01-03T08:08:53.648Z,21.13
2019-01-03T08:11:40.099Z,38.37
2019-01-03T08:14:28.771Z,35.37
2019-01-03T08:17:15.307Z,42.40
2019-01-03T08:19:45.631Z,49.90
2019-01-03T08:22:15.880Z,45.97
2019-01-03T08:24:55.392Z,59.80
2019-01-03T08:27:40.668Z,81.60
2019-01-03T08:30:16.632Z,135.03
2019-01-03T08:32:52.883Z,116.80
2019-01-03T08:35:39.510Z,110.63
2019-01-03T08:38:19.043Z,71.70
2019-01-03T08:41:08.014Z,40.33
2019-01-03T08:43:54.395Z,27.70
2019-01-03T08:46:32.189Z,20.07
2019-01-03T08:49:14.712Z,23.00
2019-01-03T08:51:47.997Z,26.87
2019-01-03T08:54:30.555Z,27.83
2019-01-03T08:57:07.075Z,12.13
2019-01-03T08:59:52.361Z,15.37
2019-01-03T09:02:32.306Z,21.70
2019-01-03T09:05:09.584Z,25.90
2019-01-03T09:07:55.111Z,22.60
2019-01-03T09:10:34.653Z,31.07
2019-01-03T09:13:11.150Z,20.23
2019-01-03T09:15:41.399Z,14.53
2019-01-03T09:18:28.314Z,20.83
2019-01-03T09:20:58.506Z,22.60
2019-01-03T09:23:31.710Z,27.63
2019-01-03T09:26:02.197Z,20.07
2019-01-03T09:28:48.800Z,34.83
2019-01-03T09:31:22.114Z,23.07
2019-01-03T09:33:52.379Z,17.47
2019-01-03T09:36:31.610Z,26.27
2019-01-03T09:39:01.860Z,17.00
2019-01-03T09:41:41.013Z,19.50
2019-01-03T09:44:14.228Z,18.03
2019-01-03T09:46:42.911Z,21.00
2019-01-03T09:49:11.679Z,24.57
2019-01-03T09:51:40.356Z,14.70
2019-01-03T09:54:09.147Z,11.83
2019-01-03T09:56:38.018Z,18.90
2019-01-03T09:59:06.720Z,15.53
2019-01-03T10:01:35.409Z,16.57
2019-01-03T10:04:04.270Z,17.20
2019-01-03T10:06:32.980Z,20.40
2019-01-03T10:09:01.653Z,17.93
2019-01-03T10:11:30.743Z,16.13
2019-01-03T10:13:59.460Z,23.63
2019-01-03T10:16:28.157Z,22.47
2019-01-03T10:18:57.200Z,21.77
2019-01-03T10:21:25.875Z,24.63
2019-01-03T10:23:54.559Z,20.33
2019-01-03T10:26:23.287Z,33.77
2019-01-03T10:28:51.969Z,27.63
2019-01-03T10:31:20.643Z,26.97
2019-01-03T10:33:49.621Z,34.23
2019-01-03T10:36:24.215Z,21.03
2019-01-03T10:38:49.284Z,31.90
2019-01-03T10:41:18.433Z,22.87
2019-01-03T10:43:47.114Z,21.47
2019-01-03T10:46:15.804Z,25.17
2019-01-03T10:48:44.548Z,24.13
2019-01-03T10:51:13.240Z,21.57
2019-01-03T10:53:41.930Z,29.83
2019-01-03T10:56:10.668Z,28.23
2019-01-03T10:58:39.352Z,48.53
2019-01-03T11:01:08.019Z,29.63
2019-01-03T11:03:36.741Z,27.50
2019-01-03T11:06:05.428Z,25.73
2019-01-03T11:08:34.189Z,32.33
2019-01-03T11:11:02.944Z,37.13
2019-01-03T11:13:31.609Z,24.03
2019-01-03T11:16:00.312Z,29.07
2019-01-03T11:18:29.131Z,24.87
2019-01-03T11:20:57.812Z,27.10
2019-01-03T11:23:26.497Z,22.53
2019-01-03T11:25:55.263Z,17.40
2019-01-03T11:28:23.937Z,12.57
2019-01-03T11:30:52.621Z,17.17
2019-01-03T11:33:21.647Z,12.97
2019-01-03T11:35:50.332Z,18.40
2019-01-03T11:38:19.019Z,16.83
2019-01-03T11:40:48.188Z,16.67
2019-01-03T11:43:16.858Z,20.30
2019-01-03T11:45:45.531Z,14.93
2019-01-03T11:48:14.346Z,28.43
2019-01-03T11:50:43.040Z,19.43
2019-01-03T11:53:11.739Z,21.60
2019-01-03T11:55:40.617Z,30.33
2019-01-03T11:58:09.272Z,22.80
2019-01-03T12:00:37.952Z,21.13
2019-01-03T12:03:07.732Z,29.57
2019-01-03T12:05:36.429Z,19.53
2019-01-03T12:08:05.121Z,20.60
2019-01-03T12:10:34.325Z,21.37
2019-01-03T12:13:03.021Z,17.30
2019-01-03T12:15:31.679Z,24.30
2019-01-03T12:18:00.466Z,18.33
2019-01-03T12:20:29.152Z,20.50
2019-01-03T12:22:57.840Z,19.20
2019-01-03T12:25:26.892Z,21.67
2019-01-03T12:27:55.563Z,17.73
2019-01-03T12:30:24.239Z,15.87
2019-01-03T12:32:54.424Z,21.87
2019-01-03T12:35:23.130Z,18.33
2019-01-03T12:37:51.809Z,23.30
2019-01-03T12:40:20.655Z,20.57
2019-01-03T12:42:49.344Z,20.80
2019-01-03T12:45:18.028Z,31.23
2019-01-03T12:47:46.748Z,32.33
2019-01-03T12:50:15.431Z,30.10
2019-01-03T12:52:44.121Z,14.57
2019-01-03T12:55:13.979Z,38.40
2019-01-03T12:57:42.658Z,36.00
2019-01-03T13:00:12.729Z,25.50
2019-01-03T13:02:41.642Z,27.83
2019-01-03T13:05:11.022Z,28.30
2019-01-03T13:07:39.704Z,29.77
2019-01-03T13:10:09.378Z,31.07
2019-01-03T13:12:38.139Z,30.53
2019-01-03T13:15:07.335Z,17.40
2019-01-03T13:17:36.211Z,17.30
2019-01-03T13:20:07.169Z,20.57
2019-01-03T13:22:36.671Z,29.80
2019-01-03T13:25:06.383Z,34.40
2019-01-03T13:27:36.163Z,35.40
2019-01-03T13:30:07.735Z,28.63
2019-01-03T13:32:36.430Z,29.10
2019-01-03T13:35:05.600Z,23.57
2019-01-03T13:37:36.278Z,21.70
2019-01-03T13:40:06.346Z,18.13
2019-01-03T13:42:35.034Z,48.50
2019-01-03T13:45:04.094Z,27.63
2019-01-03T13:47:32.773Z,26.70
2019-01-03T13:50:02.245Z,27.40
2019-01-03T13:52:31.817Z,28.10
2019-01-03T13:55:00.511Z,25.07
2019-01-03T13:57:29.215Z,25.03
2019-01-03T13:59:58.428Z,24.90
2019-01-03T14:02:27.113Z,30.43
2019-01-03T14:04:55.801Z,29.87
2019-01-03T14:07:24.582Z,40.60
2019-01-03T14:09:53.270Z,35.07
2019-01-03T14:12:22.647Z,27.10
2019-01-03T14:14:51.479Z,30.20
2019-01-03T14:17:20.167Z,37.00
2019-01-03T14:19:48.845Z,28.00
2019-01-03T14:22:17.680Z,21.23
2019-01-03T14:24:46.365Z,23.80
2019-01-03T14:27:15.080Z,25.80
2019-01-03T14:29:43.935Z,26.67
2019-01-03T14:32:12.626Z,36.67
2019-01-03T14:34:41.315Z,24.60
2019-01-03T14:37:10.153Z,35.60
2019-01-03T14:39:38.828Z,60.53
2019-01-03T14:42:09.025Z,35.97
2019-01-03T14:44:38.758Z,27.83
2019-01-03T14:47:07.430Z,26.77
2019-01-03T14:49:36.118Z,30.20
2019-01-03T14:52:06.013Z,27.40
2019-01-03T14:54:34.709Z,37.93
2019-01-03T14:57:03.385Z,28.07
2019-01-03T14:59:33.825Z,35.90
2019-01-03T15:02:02.606Z,44.87
2019-01-03T15:04:33.950Z,42.57
2019-01-03T15:07:02.981Z,56.23
2019-01-03T15:09:31.664Z,46.13
2019-01-03T15:12:02.424Z,42.87
2019-01-03T15:14:32.583Z,84.00
2019-01-03T15:17:01.412Z,164.70
2019-01-03T15:19:30.387Z,93.00
2019-01-03T15:21:59.050Z,98.20
2019-01-03T15:24:27.729Z,57.07
2019-01-03T15:26:56.385Z,81.83
2019-01-03T15:29:26.095Z,93.93
2019-01-03T15:31:54.987Z,124.73
2019-01-03T15:34:24.090Z,144.20
2019-01-03T15:36:52.791Z,170.80
2019-01-03T15:39:21.494Z,77.10
2019-01-03T15:41:50.510Z,117.77
2019-01-03T15:44:19.191Z,106.23
2019-01-03T15:46:47.885Z,583.00
2019-01-03T15:49:16.801Z,364.93
2019-01-03T15:51:45.498Z,146.13
2019-01-03T15:54:14.186Z,90.57
2019-01-03T15:56:43.055Z,64.67
2019-01-03T15:59:11.732Z,108.27
2019-01-03T16:01:40.422Z,149.43
2019-01-03T16:04:09.166Z,132.90
2019-01-03T16:06:37.950Z,141.07
2019-01-03T16:09:06.929Z,83.90
2019-01-03T16:11:35.775Z,181.10
2019-01-03T16:14:04.456Z,345.87
2019-01-03T16:16:34.084Z,147.60
2019-01-03T16:19:02.885Z,111.17
2019-01-03T16:21:31.570Z,134.10
2019-01-03T16:24:00.244Z,72.77
2019-01-03T16:26:29.080Z,53.17
2019-01-03T16:28:57.762Z,46.03
2019-01-03T16:31:26.440Z,38.90
2019-01-03T16:33:55.267Z,30.47
2019-01-03T16:36:24.045Z,26.27
2019-01-03T16:38:52.738Z,58.97
2019-01-03T16:41:21.554Z,87.53
2019-01-03T16:43:50.226Z,67.17
2019-01-03T16:46:18.908Z,43.83
2019-01-03T16:48:47.723Z,39.20
2019-01-03T16:51:16.418Z,36.40
2019-01-03T16:53:45.408Z,31.73
2019-01-03T16:56:14.236Z,29.60
2019-01-03T16:58:42.923Z,24.00
2019-01-03T17:01:12.438Z,22.57
2019-01-03T17:03:43.155Z,25.60
2019-01-03T17:06:11.776Z,22.40
2019-01-03T17:08:40.460Z,22.13
2019-01-03T17:11:09.450Z,21.37
2019-01-03T17:13:42.054Z,25.97
2019-01-03T17:16:10.435Z,28.07
2019-01-03T17:18:42.241Z,28.60
2019-01-03T17:21:14.892Z,29.10
2019-01-03T17:23:43.891Z,132.73
2019-01-03T17:26:12.560Z,95.07
2019-01-03T17:28:42.256Z,148.27
2019-01-03T17:31:11.279Z,188.93
2019-01-03T17:33:43.147Z,184.90
2019-01-03T17:36:15.621Z,60.53
2019-01-03T17:38:45.234Z,112.77
2019-01-03T17:41:13.920Z,151.30
2019-01-03T17:43:51.337Z,156.67
2019-01-03T17:46:21.616Z,138.67
2019-01-03T17:48:52.077Z,181.27
2019-01-03T17:51:20.924Z,100.33
2019-01-03T17:53:49.603Z,55.23
2019-01-03T17:56:22.151Z,99.33
2019-01-03T17:58:51.074Z,55.33
2019-01-03T18:01:19.751Z,91.03
2019-01-03T18:03:48.443Z,95.43
2019-01-03T18:06:17.310Z,80.40
2019-01-03T18:08:46.007Z,144.73
2019-01-03T18:11:14.697Z,68.73
2019-01-03T18:13:43.627Z,69.03
2019-01-03T18:16:12.403Z,52.00
2019-01-03T18:18:41.104Z,90.43
2019-01-03T18:21:10.124Z,128.73
2019-01-03T18:23:39.737Z,201.43
2019-01-03T18:26:08.439Z,103.00
2019-01-03T18:28:37.171Z,156.83
2019-01-03T18:31:05.854Z,230.03
2019-01-03T18:33:38.486Z,164.57
2019-01-03T18:36:07.319Z,218.10
2019-01-03T18:38:36.016Z,136.83
2019-01-03T18:41:04.702Z,146.93
2019-01-03T18:43:33.445Z,98.73
2019-01-03T18:46:02.923Z,126.53
2019-01-03T18:48:31.632Z,94.27
2019-01-03T18:51:00.382Z,144.80
2019-01-03T18:53:29.066Z,66.47
2019-01-03T18:55:57.780Z,103.70
2019-01-03T18:58:26.621Z,148.20
2019-01-03T19:00:55.328Z,129.87
2019-01-03T19:03:24.017Z,132.50
2019-01-03T19:05:52.886Z,70.93
2019-01-03T19:08:21.562Z,89.90
2019-01-03T19:10:50.250Z,160.17
2019-01-03T19:13:20.444Z,83.70
2019-01-03T19:15:49.132Z,107.57
2019-01-03T19:18:17.815Z,98.57
2019-01-03T19:20:46.736Z,65.63
2019-01-03T19:23:15.415Z,58.47
2019-01-03T19:25:44.131Z,37.63
2019-01-03T19:28:12.885Z,30.57
2019-01-03T19:30:43.020Z,33.93
2019-01-03T19:33:11.702Z,28.17
2019-01-03T19:35:40.538Z,29.80
2019-01-03T19:38:09.217Z,27.30
2019-01-03T19:40:37.927Z,18.73
2019-01-03T19:43:06.888Z,15.07
2019-01-03T19:45:35.567Z,17.70
2019-01-03T19:48:04.242Z,16.40
2019-01-03T19:50:33.080Z,21.87
2019-01-03T19:53:01.770Z,13.97
2019-01-03T19:55:30.452Z,16.80
2019-01-03T19:57:59.167Z,26.30
2019-01-03T20:00:27.864Z,26.07
2019-01-03T20:02:56.583Z,29.13
2019-01-03T20:05:25.625Z,21.60
2019-01-03T20:07:54.327Z,21.10
2019-01-03T20:10:23.011Z,23.97
2019-01-03T20:12:51.957Z,18.03
2019-01-03T20:15:20.638Z,19.10
2019-01-03T20:17:49.623Z,20.03
2019-01-03T20:20:21.488Z,30.77
2019-01-03T20:22:50.179Z,41.30
2019-01-03T20:25:18.869Z,30.90
2019-01-03T20:27:47.855Z,25.50
2019-01-03T20:30:16.554Z,49.10
2019-01-03T20:32:45.254Z,25.43
2019-01-03T20:35:14.057Z,50.53
2019-01-03T20:37:42.774Z,30.07
2019-01-03T20:40:11.439Z,51.60
2019-01-03T20:42:40.435Z,49.60
2019-01-03T20:45:11.588Z,52.50
2019-01-03T20:47:40.378Z,43.20
2019-01-03T20:50:13.227Z,23.07
2019-01-03T20:52:41.916Z,35.80
2019-01-03T20:55:10.593Z,29.10
2019-01-03T20:57:39.417Z,39.27
2019-01-03T21:00:11.067Z,42.87
2019-01-03T21:02:39.773Z,36.80
2019-01-03T21:05:08.927Z,35.10
2019-01-03T21:07:37.651Z,66.03
2019-01-03T21:10:09.539Z,23.77
2019-01-03T21:12:38.509Z,46.70
2019-01-03T21:15:10.204Z,60.77
2019-01-03T21:17:39.021Z,74.73
2019-01-03T21:20:13.065Z,24.13
2019-01-03T21:22:41.937Z,22.27
2019-01-03T21:25:11.661Z,19.40
2019-01-03T21:27:40.638Z,69.20
2019-01-03T21:30:12.723Z,33.97
2019-01-03T21:32:41.404Z,39.07
2019-01-03T21:35:10.187Z,51.30
2019-01-03T21:37:39.020Z,24.00
2019-01-03T21:40:10.210Z,100.03
2019-01-03T21:42:38.881Z,17.63
2019-01-03T21:45:10.620Z,18.27
2019-01-03T21:47:39.302Z,24.57
2019-01-03T21:50:11.415Z,18.47
2019-01-03T21:52:40.278Z,17.37
2019-01-03T21:55:08.932Z,14.53
2019-01-03T21:57:37.610Z,22.67
2019-01-03T22:00:11.522Z,28.67
2019-01-03T22:02:40.223Z,21.07
2019-01-03T22:05:09.011Z,13.03
2019-01-03T22:07:37.798Z,24.67
2019-01-03T22:10:09.044Z,21.03
2019-01-03T22:12:37.732Z,22.43
2019-01-03T22:15:09.174Z,14.57
2019-01-03T22:17:37.855Z,27.93
2019-01-03T22:20:08.441Z,29.53
2019-01-03T22:22:37.168Z,16.33
2019-01-03T22:25:07.744Z,32.90
2019-01-03T22:27:36.500Z,22.03
2019-01-03T22:30:08.141Z,20.27
2019-01-03T22:32:36.818Z,32.83
2019-01-03T22:35:06.504Z,27.70
2019-01-03T22:37:35.616Z,23.20
2019-01-03T22:40:04.865Z,17.37
2019-01-03T22:42:33.545Z,41.50
2019-01-03T22:45:02.579Z,25.43
2019-01-03T22:47:31.251Z,27.07
2019-01-03T22:49:59.922Z,21.50
2019-01-03T22:52:28.655Z,27.57
2019-01-03T22:54:57.338Z,37.33
2019-01-03T22:57:26.023Z,15.17
2019-01-03T22:59:54.743Z,32.63
2019-01-03T23:02:23.417Z,35.83
2019-01-03T23:04:52.105Z,24.53
2019-01-03T23:07:20.938Z,20.33
2019-01-03T23:09:49.620Z,30.57
2019-01-03T23:12:18.295Z,25.57
2019-01-03T23:14:47.330Z,37.67
2019-01-03T23:17:16.010Z,42.27
2019-01-03T23:19:44.696Z,12.60
2019-01-03T23:22:13.537Z,24.50
2019-01-03T23:24:42.222Z,18.83
2019-01-03T23:27:10.903Z,15.60
2019-01-03T23:29:40.781Z,19.60
2019-01-03T23:32:09.458Z,20.87
2019-01-03T23:34:38.127Z,14.97
2019-01-03T23:37:07.037Z,14.93
2019-01-03T23:39:35.706Z,12.80
2019-01-03T23:42:04.382Z,13.03
2019-01-03T23:44:33.202Z,17.53
2019-01-03T23:47:02.311Z,14.43
2019-01-03T23:49:31.080Z,13.77
2019-01-03T23:51:59.910Z,12.77
2019-01-03T23:54:28.577Z,13.50
2019-01-03T23:56:57.248Z,11.20
2019-01-03T23:59:25.992Z,14.17
